Time;durP1;ratioP1;P1;durP2;ratioP2;P2;SDS_P1;SDS_P2;PMS_P1;PMS_P2;Temp;Humidity;BMP_temperature;BMP_pressure;BME280_temperature;BME280_humidity;BME280_pressure;Samples;Min_cycle;Max_cycle;Signal;HPM_P1;HPM_P2
2023/05/25 00:01:08;;;;;;;8.87;2.50;;;12.10;99.90;;;;;;4994173;28;20031;-65
2023/05/25 00:03:34;;;;;;;12.27;3.00;;;12.10;99.90;;;;;;4994998;28;20042;-64
2023/05/25 00:06:01;;;;;;;8.27;2.85;;;12.10;99.90;;;;;;4994478;28;20338;-65
2023/05/25 00:08:27;;;;;;;14.25;3.10;;;12.10;99.90;;;;;;5007152;28;20033;-64
2023/05/25 00:10:53;;;;;;;7.18;2.53;;;12.10;99.90;;;;;;4994033;28;20026;-65
2023/05/25 00:13:19;;;;;;;12.67;3.07;;;12.10;99.90;;;;;;4994449;28;20109;-64
2023/05/25 00:15:45;;;;;;;8.37;2.40;;;12.10;99.90;;;;;;4997259;28;20125;-64
2023/05/25 00:18:11;;;;;;;10.73;3.30;;;12.00;99.90;;;;;;4998188;28;20041;-66
2023/05/25 00:20:38;;;;;;;11.45;3.22;;;11.90;99.90;;;;;;4997981;28;20031;-64
2023/05/25 00:23:04;;;;;;;7.13;2.80;;;11.90;99.90;;;;;;4998789;28;20145;-64
2023/05/25 00:25:29;;;;;;;7.97;3.07;;;11.90;99.90;;;;;;4997177;28;20038;-64
2023/05/25 00:27:55;;;;;;;6.67;2.67;;;11.80;99.90;;;;;;4991651;28;20275;-65
2023/05/25 00:30:21;;;;;;;14.00;3.10;;;11.80;99.90;;;;;;4996860;28;20321;-65
2023/05/25 00:32:46;;;;;;;8.63;2.77;;;11.80;99.90;;;;;;4998566;28;20022;-65
2023/05/25 00:35:12;;;;;;;10.47;3.40;;;11.60;99.90;;;;;;4997162;28;20030;-74
2023/05/25 00:37:38;;;;;;;6.60;2.67;;;11.60;99.90;;;;;;4997717;28;20023;-64
2023/05/25 00:40:09;;;;;;;8.37;2.60;;;11.50;99.90;;;;;;4997385;28;20026;-64
2023/05/25 00:42:38;;;;;;;13.57;3.40;;;11.50;99.90;;;;;;4991170;28;20060;-64
2023/05/25 00:45:04;;;;;;;12.13;2.97;;;11.60;99.90;;;;;;4988369;28;20038;-64
2023/05/25 00:47:30;;;;;;;9.32;3.00;;;11.60;99.90;;;;;;4996553;28;20531;-64
2023/05/25 00:49:57;;;;;;;7.18;3.50;;;11.60;99.90;;;;;;4992587;28;20046;-65
2023/05/25 00:52:25;;;;;;;8.25;2.78;;;11.60;99.90;;;;;;4997216;28;20034;-65
2023/05/25 00:54:54;;;;;;;8.45;3.08;;;11.60;99.90;;;;;;4997591;28;20421;-65
2023/05/25 00:57:22;;;;;;;7.78;2.90;;;11.50;99.90;;;;;;4996926;28;20385;-64
2023/05/25 00:59:50;;;;;;;15.45;3.45;;;11.50;99.90;;;;;;4996759;28;20045;-78
2023/05/25 01:02:18;;;;;;;9.90;2.72;;;11.40;99.90;;;;;;4990414;28;20373;-64
2023/05/25 01:04:51;;;;;;;7.78;2.65;;;11.40;99.90;;;;;;4997616;28;20094;-65
2023/05/25 01:07:22;;;;;;;7.00;2.83;;;11.30;99.90;;;;;;4995775;28;20033;-79
2023/05/25 01:09:53;;;;;;;7.05;2.45;;;11.30;99.90;;;;;;4997689;28;20049;-65
2023/05/25 01:12:20;;;;;;;6.68;2.75;;;11.20;99.90;;;;;;4997358;28;20132;-65
2023/05/25 01:14:47;;;;;;;;;;;11.20;99.90;;;;;;4997579;28;20097;-65
2023/05/25 01:17:14;;;;;;;11.80;2.97;;;11.10;99.90;;;;;;4996386;28;20216;-65
2023/05/25 01:19:44;;;;;;;9.85;3.28;;;11.10;99.90;;;;;;4986714;28;20027;-64
2023/05/25 01:22:31;;;;;;;6.63;2.90;;;11.10;99.90;;;;;;4984176;28;20030;-78
2023/05/25 01:25:12;;;;;;;12.43;2.85;;;11.00;99.90;;;;;;4991349;28;20041;-65
2023/05/25 01:27:53;;;;;;;3.70;2.22;;;10.90;99.90;;;;;;4991899;28;20038;-64
2023/05/25 01:30:24;;;;;;;8.68;3.40;;;10.90;99.90;;;;;;4993794;28;20034;-64
2023/05/25 01:32:51;;;;;;;7.38;2.65;;;10.80;99.90;;;;;;4995306;28;20432;-79
2023/05/25 01:35:19;;;;;;;11.35;3.03;;;10.80;99.90;;;;;;4996777;28;20019;-64
2023/05/25 01:37:46;;;;;;;8.20;2.88;;;10.70;99.90;;;;;;4991821;28;20026;-64
2023/05/25 01:40:13;;;;;;;8.13;2.65;;;10.80;99.90;;;;;;4992959;28;20407;-64
2023/05/25 01:42:39;;;;;;;10.23;3.00;;;10.80;99.90;;;;;;4995107;28;20038;-78
2023/05/25 01:45:06;;;;;;;6.30;3.13;;;10.80;99.90;;;;;;4993851;28;20299;-65
2023/05/25 01:47:53;;;;;;;9.23;2.88;;;10.80;99.90;;;;;;4986632;28;20329;-65
2023/05/25 01:50:47;;;;;;;9.70;2.65;;;10.70;99.90;;;;;;4995436;28;20026;-65
2023/05/25 01:53:19;;;;;;;8.63;3.15;;;10.70;99.90;;;;;;4985565;28;20529;-64
2023/05/25 01:55:59;;;;;;;8.90;2.60;;;10.70;99.90;;;;;;4990986;28;20022;-65
2023/05/25 01:58:27;;;;;;;7.82;3.40;;;10.60;99.90;;;;;;4996192;28;20034;-64
2023/05/25 02:00:54;;;;;;;9.38;3.45;;;10.50;99.90;;;;;;4986048;28;20033;-65
2023/05/25 02:03:20;;;;;;;12.65;3.17;;;10.50;99.90;;;;;;4995353;28;20056;-64
2023/05/25 02:05:46;;;;;;;7.85;3.08;;;10.40;99.90;;;;;;4985239;28;20041;-64
2023/05/25 02:08:12;;;;;;;6.43;3.10;;;10.30;99.90;;;;;;4989202;28;20035;-64
2023/05/25 02:10:38;;;;;;;6.57;2.87;;;10.30;99.90;;;;;;4977461;28;20280;-65
2023/05/25 02:13:04;;;;;;;7.93;3.40;;;10.20;99.90;;;;;;4990709;28;20113;-64
2023/05/25 02:15:31;;;;;;;4.40;2.70;;;10.20;99.90;;;;;;4999301;28;20129;-64
2023/05/25 02:17:58;;;;;;;8.02;2.83;;;10.20;99.90;;;;;;4991575;28;20026;-79
2023/05/25 02:20:25;;;;;;;11.60;2.92;;;10.20;99.90;;;;;;4990414;28;20030;-64
2023/05/25 02:22:51;;;;;;;17.15;3.03;;;10.20;99.90;;;;;;4993609;28;20421;-64
2023/05/25 02:25:17;;;;;;;6.78;3.15;;;10.30;99.90;;;;;;4995922;28;20081;-64
2023/05/25 02:27:43;;;;;;;11.83;3.43;;;10.20;99.90;;;;;;4993478;28;20026;-64
2023/05/25 02:30:10;;;;;;;7.38;2.70;;;10.20;99.90;;;;;;4995185;28;20030;-64
2023/05/25 02:32:36;;;;;;;4.82;2.95;;;10.10;99.90;;;;;;4996014;28;20023;-64
2023/05/25 02:35:02;;;;;;;9.77;2.95;;;10.10;99.90;;;;;;4994428;28;20030;-65
2023/05/25 02:37:28;;;;;;;6.63;2.53;;;10.10;99.90;;;;;;4994308;28;20066;-64
2023/05/25 02:39:54;;;;;;;9.20;2.70;;;10.10;99.90;;;;;;4989852;28;20482;-64
2023/05/25 02:42:20;;;;;;;8.53;3.27;;;10.10;99.90;;;;;;4989161;28;20097;-64
2023/05/25 02:44:47;;;;;;;7.13;2.43;;;10.10;99.90;;;;;;4990077;28;20398;-64
2023/05/25 02:47:16;;;;;;;11.05;2.90;;;10.10;99.90;;;;;;4984704;28;20403;-64
2023/05/25 02:49:43;;;;;;;9.50;3.15;;;10.20;99.90;;;;;;4989466;28;20031;-64
2023/05/25 02:52:09;;;;;;;7.85;2.90;;;10.10;99.90;;;;;;4989442;28;20353;-79
2023/05/25 02:54:35;;;;;;;8.38;2.65;;;10.10;99.90;;;;;;4992020;28;20027;-64
2023/05/25 02:57:03;;;;;;;4.50;2.30;;;10.10;99.90;;;;;;4989932;28;20295;-64
2023/05/25 02:59:29;;;;;;;8.60;2.65;;;10.10;99.90;;;;;;5002344;28;20351;-64
2023/05/25 03:01:55;;;;;;;6.03;2.55;;;10.10;99.90;;;;;;4992460;28;20030;-64
2023/05/25 03:04:21;;;;;;;7.13;2.80;;;10.20;99.90;;;;;;4991292;28;20057;-64
2023/05/25 03:06:47;;;;;;;7.97;3.00;;;10.20;99.90;;;;;;4993176;28;20030;-64
2023/05/25 03:09:13;;;;;;;10.10;2.90;;;10.10;99.90;;;;;;4992556;28;20286;-64
2023/05/25 03:11:39;;;;;;;8.90;2.50;;;10.10;99.90;;;;;;4993842;28;20289;-64
2023/05/25 03:14:05;;;;;;;6.60;2.73;;;10.00;99.90;;;;;;4987469;28;20318;-64
2023/05/25 03:16:35;;;;;;;7.67;3.17;;;10.00;99.90;;;;;;4994686;28;20042;-64
2023/05/25 03:19:02;;;;;;;8.65;3.28;;;10.00;99.90;;;;;;4987625;28;20298;-64
2023/05/25 03:21:27;;;;;;;13.13;3.00;;;9.90;99.90;;;;;;4985282;28;20033;-64
2023/05/25 03:23:53;;;;;;;11.07;3.10;;;9.90;99.90;;;;;;4987656;28;20406;-64
2023/05/25 03:26:19;;;;;;;8.10;2.70;;;9.80;99.90;;;;;;4995528;28;20126;-79
2023/05/25 03:28:45;;;;;;;7.97;3.30;;;9.80;99.90;;;;;;4986836;28;20377;-64
2023/05/25 03:31:11;;;;;;;9.33;3.30;;;9.80;99.90;;;;;;5002312;28;20027;-64
2023/05/25 03:33:37;;;;;;;6.88;3.05;;;9.80;99.90;;;;;;4990046;28;20037;-64
2023/05/25 03:36:08;;;;;;;9.80;2.40;;;9.80;99.90;;;;;;4985315;28;20031;-64
2023/05/25 03:38:35;;;;;;;11.93;2.97;;;9.70;99.90;;;;;;4990543;28;20038;-64
2023/05/25 03:41:01;;;;;;;7.18;2.50;;;9.70;99.90;;;;;;4991794;28;20030;-64
2023/05/25 03:43:27;;;;;;;4.32;2.47;;;9.70;99.90;;;;;;4994305;28;20040;-64
2023/05/25 03:45:53;;;;;;;7.87;2.80;;;9.70;99.90;;;;;;4991396;28;20039;-64
2023/05/25 03:48:18;;;;;;;8.00;3.30;;;9.60;99.90;;;;;;5004454;28;20069;-64
2023/05/25 03:50:44;;;;;;;10.20;2.87;;;9.70;99.90;;;;;;5000156;28;20497;-64
2023/05/25 03:53:10;;;;;;;11.10;2.73;;;9.80;99.90;;;;;;4998257;28;20061;-64
2023/05/25 03:55:35;;;;;;;8.17;2.40;;;9.90;99.90;;;;;;4998091;28;20026;-64
2023/05/25 03:58:01;;;;;;;8.43;3.07;;;10.00;99.90;;;;;;4991114;28;20091;-64
2023/05/25 04:00:27;;;;;;;9.63;2.80;;;10.00;99.90;;;;;;4991299;28;20037;-79
2023/05/25 04:02:52;;;;;;;11.53;2.93;;;9.90;99.90;;;;;;4998403;28;20116;-64
2023/05/25 04:05:18;;;;;;;7.80;2.83;;;9.90;99.90;;;;;;4988361;28;20027;-64
2023/05/25 04:07:44;;;;;;;6.40;2.70;;;9.80;99.90;;;;;;4991233;28;20030;-64
2023/05/25 04:10:10;;;;;;;6.43;2.72;;;9.90;99.90;;;;;;4996180;28;20041;-64
2023/05/25 04:12:36;;;;;;;16.13;3.33;;;9.80;99.90;;;;;;4998471;28;20035;-64
2023/05/25 04:15:04;;;;;;;10.90;3.77;;;9.90;99.90;;;;;;4998558;28;20068;-64
2023/05/25 04:17:30;;;;;;;8.18;3.25;;;9.90;99.90;;;;;;4998826;28;20022;-79
2023/05/25 04:19:55;;;;;;;8.67;3.33;;;9.90;99.90;;;;;;4992949;28;20728;-64
2023/05/25 04:22:21;;;;;;;16.43;4.00;;;10.00;99.90;;;;;;4990395;28;20027;-64
2023/05/25 04:24:47;;;;;;;13.57;3.63;;;10.00;99.90;;;;;;4994093;28;20052;-64
2023/05/25 04:27:13;;;;;;;10.67;3.67;;;10.10;99.90;;;;;;4984179;28;20023;-65
2023/05/25 04:29:42;;;;;;;13.03;4.27;;;10.20;99.90;;;;;;4992941;28;20084;-64
2023/05/25 04:32:09;;;;;;;19.33;4.80;;;10.40;99.90;;;;;;4997918;28;20646;-64
2023/05/25 04:34:35;;;;;;;13.18;4.32;;;10.50;99.90;;;;;;4998361;28;20058;-78
2023/05/25 04:37:04;;;;;;;10.68;4.22;;;10.70;99.90;;;;;;4984633;28;20381;-64
2023/05/25 04:39:31;;;;;;;15.93;5.25;;;10.70;99.90;;;;;;4996518;28;20088;-64
2023/05/25 04:41:57;;;;;;;18.02;3.83;;;10.80;99.90;;;;;;4998139;28;20135;-64
2023/05/25 04:44:24;;;;;;;20.50;5.00;;;10.90;99.90;;;;;;4997312;28;20054;-64
2023/05/25 04:46:51;;;;;;;12.98;3.88;;;11.10;99.90;;;;;;4997453;28;20121;-64
2023/05/25 04:49:17;;;;;;;17.17;5.72;;;11.30;99.90;;;;;;4997932;28;20030;-64
2023/05/25 04:51:43;;;;;;;19.25;4.78;;;11.40;99.90;;;;;;5013245;28;20354;-65
2023/05/25 04:54:09;;;;;;;20.00;4.53;;;11.50;99.90;;;;;;4995131;28;20069;-64
2023/05/25 04:56:35;;;;;;;15.70;4.80;;;11.60;99.90;;;;;;4995602;28;20027;-64
2023/05/25 04:59:02;;;;;;;10.10;4.00;;;11.70;99.90;;;;;;4997061;28;20303;-64
2023/05/25 05:01:28;;;;;;;13.57;4.93;;;11.70;99.90;;;;;;5005205;28;20033;-64
2023/05/25 05:03:54;;;;;;;22.90;5.30;;;11.80;99.90;;;;;;4996769;28;20038;-64
2023/05/25 05:06:20;;;;;;;21.90;4.93;;;11.80;99.90;;;;;;5008017;28;20026;-64
2023/05/25 05:08:46;;;;;;;13.35;4.53;;;11.90;99.90;;;;;;5012102;28;20033;-80
2023/05/25 05:11:11;;;;;;;14.53;4.43;;;11.90;99.90;;;;;;5010829;28;20014;-64
2023/05/25 05:13:37;;;;;;;20.00;5.57;;;12.00;99.90;;;;;;5005137;28;20427;-64
2023/05/25 05:16:03;;;;;;;18.53;5.03;;;12.00;99.90;;;;;;5006100;28;20077;-64
2023/05/25 05:18:29;;;;;;;17.80;4.77;;;12.10;99.90;;;;;;5013634;28;20018;-65
2023/05/25 05:20:55;;;;;;;19.98;5.00;;;12.10;99.90;;;;;;5009160;28;20056;-64
2023/05/25 05:23:21;;;;;;;18.77;5.60;;;12.10;99.90;;;;;;5007839;28;20412;-64
2023/05/25 05:25:46;;;;;;;12.37;5.30;;;12.10;99.90;;;;;;5007236;28;20424;-77
2023/05/25 05:28:12;;;;;;;19.70;5.30;;;12.20;99.90;;;;;;4997186;28;20298;-64
2023/05/25 05:30:38;;;;;;;27.07;5.63;;;12.30;99.90;;;;;;5005137;28;20030;-64
2023/05/25 05:33:03;;;;;;;20.30;5.63;;;12.20;99.90;;;;;;5000518;28;20026;-64
2023/05/25 05:35:30;;;;;;;10.63;3.90;;;12.20;99.90;;;;;;5006923;28;20068;-64
2023/05/25 05:37:55;;;;;;;9.63;4.90;;;12.30;99.90;;;;;;4999883;28;20022;-64
2023/05/25 05:40:21;;;;;;;17.10;5.40;;;12.30;99.90;;;;;;5011276;28;20360;-64
2023/05/25 05:42:49;;;;;;;14.40;4.93;;;12.30;99.90;;;;;;5004093;28;20034;-77
2023/05/25 05:45:14;;;;;;;18.42;4.40;;;12.40;99.90;;;;;;5006791;28;20125;-64
2023/05/25 05:47:40;;;;;;;18.67;4.63;;;12.50;99.90;;;;;;5007498;28;20062;-65
2023/05/25 05:50:06;;;;;;;12.30;4.70;;;12.50;99.90;;;;;;5001538;28;20148;-64
2023/05/25 05:52:32;;;;;;;11.20;4.53;;;12.50;99.90;;;;;;4995842;28;20030;-64
2023/05/25 05:54:58;;;;;;;13.30;4.60;;;12.50;99.90;;;;;;4991005;28;20034;-64
2023/05/25 05:57:23;;;;;;;13.10;4.67;;;12.60;99.90;;;;;;4981303;28;20030;-64
2023/05/25 05:59:49;;;;;;;17.77;5.00;;;12.60;99.90;;;;;;4985154;28;20126;-64
2023/05/25 06:02:15;;;;;;;18.80;5.57;;;12.60;99.90;;;;;;5015231;28;20061;-65
2023/05/25 06:04:40;;;;;;;15.63;4.57;;;12.60;99.90;;;;;;4994593;28;20037;-64
2023/05/25 06:07:06;;;;;;;14.67;4.90;;;12.70;99.90;;;;;;5011662;28;20038;-65
2023/05/25 06:09:32;;;;;;;18.00;5.10;;;12.80;99.90;;;;;;5011557;28;20026;-77
2023/05/25 06:11:58;;;;;;;16.97;4.97;;;12.80;99.90;;;;;;4996660;28;20030;-65
2023/05/25 06:14:23;;;;;;;15.23;4.90;;;12.90;99.90;;;;;;4995603;28;20117;-64
2023/05/25 06:16:49;;;;;;;14.70;5.13;;;13.00;99.90;;;;;;4994967;28;20136;-64
2023/05/25 06:19:15;;;;;;;18.33;4.35;;;13.10;99.90;;;;;;4994944;28;20031;-65
2023/05/25 06:21:41;;;;;;;16.90;4.67;;;13.00;99.90;;;;;;4996282;28;20322;-63
2023/05/25 06:24:07;;;;;;;11.67;4.47;;;13.00;99.90;;;;;;4990927;28;20148;-64
2023/05/25 06:26:33;;;;;;;13.83;4.40;;;13.20;99.90;;;;;;4992838;28;20018;-64
2023/05/25 06:28:59;;;;;;;11.77;5.03;;;13.10;99.90;;;;;;4997471;28;20274;-64
2023/05/25 06:31:25;;;;;;;14.27;4.40;;;13.20;99.90;;;;;;4993983;28;20261;-64
2023/05/25 06:33:51;;;;;;;10.87;3.57;;;13.20;99.90;;;;;;4990480;28;20073;-64
2023/05/25 06:36:16;;;;;;;9.13;3.37;;;13.40;99.90;;;;;;4989265;28;20046;-86
2023/05/25 06:38:42;;;;;;;6.93;3.07;;;13.40;99.90;;;;;;5001662;28;20323;-64
2023/05/25 06:41:08;;;;;;;12.13;3.60;;;13.40;99.90;;;;;;4988752;28;20080;-65
2023/05/25 06:43:34;;;;;;;12.77;3.75;;;13.40;99.90;;;;;;4993536;28;20406;-65
2023/05/25 06:46:00;;;;;;;10.37;2.83;;;13.40;99.90;;;;;;4996657;28;20042;-64
2023/05/25 06:48:25;;;;;;;9.77;3.23;;;13.50;99.90;;;;;;4995095;28;20030;-65
2023/05/25 06:50:51;;;;;;;10.07;2.90;;;13.50;99.90;;;;;;4995710;28;20038;-64
2023/05/25 06:53:17;;;;;;;10.33;3.10;;;13.50;99.90;;;;;;4995150;28;20077;-84
2023/05/25 06:55:43;;;;;;;6.07;3.10;;;13.50;99.90;;;;;;4991330;28;20018;-64
2023/05/25 06:58:08;;;;;;;8.43;2.87;;;13.50;99.90;;;;;;4994116;28;20037;-65
2023/05/25 07:00:34;;;;;;;8.63;3.03;;;13.50;99.90;;;;;;4994316;28;20369;-65
2023/05/25 07:03:00;;;;;;;6.40;2.70;;;13.50;99.90;;;;;;4993668;28;20038;-79
2023/05/25 07:05:26;;;;;;;7.53;2.90;;;13.50;99.90;;;;;;4995582;28;20113;-65
2023/05/25 07:07:51;;;;;;;6.40;2.40;;;13.50;99.90;;;;;;4999073;28;20080;-64
2023/05/25 07:10:17;;;;;;;8.83;2.80;;;13.40;99.90;;;;;;5007166;28;20035;-65
2023/05/25 07:12:43;;;;;;;10.30;2.50;;;13.40;99.90;;;;;;4999656;28;20034;-65
2023/05/25 07:15:09;;;;;;;5.87;2.40;;;13.50;99.90;;;;;;5020978;28;20057;-64
2023/05/25 07:17:35;;;;;;;4.25;1.90;;;13.50;99.90;;;;;;5002319;28;20031;-64
2023/05/25 07:20:01;;;;;;;8.10;2.37;;;13.50;99.90;;;;;;4992193;28;20410;-71
2023/05/25 07:22:27;;;;;;;6.75;2.13;;;13.40;99.90;;;;;;4994151;28;20030;-65
2023/05/25 07:24:53;;;;;;;10.00;2.77;;;13.40;99.90;;;;;;4990726;28;20041;-65
2023/05/25 07:27:18;;;;;;;9.97;2.40;;;13.60;99.90;;;;;;4990170;28;20022;-81
2023/05/25 07:29:44;;;;;;;9.23;2.27;;;13.70;99.90;;;;;;5001799;28;20034;-66
2023/05/25 07:32:10;;;;;;;10.80;2.50;;;13.80;99.90;;;;;;4987887;28;20161;-64
2023/05/25 07:34:38;;;;;;;5.13;2.27;;;13.80;99.90;;;;;;4982103;28;20019;-64
2023/05/25 07:37:03;;;;;;;9.88;2.45;;;14.00;99.90;;;;;;4986862;28;20445;-81
2023/05/25 07:39:29;;;;;;;11.37;3.03;;;14.00;99.90;;;;;;4988078;28;20035;-66
2023/05/25 07:41:55;;;;;;;5.93;2.33;;;13.80;99.90;;;;;;4989912;28;20038;-64
2023/05/25 07:44:20;;;;;;;14.87;2.63;;;13.90;99.90;;;;;;4990166;28;20031;-64
2023/05/25 07:46:46;;;;;;;11.20;2.70;;;13.90;99.90;;;;;;4991070;28;20030;-65
2023/05/25 07:49:14;;;;;;;10.20;3.00;;;14.10;99.90;;;;;;4985546;28;20031;-65
2023/05/25 07:51:44;;;;;;;5.72;2.00;;;14.10;99.90;;;;;;4991206;28;20034;-80
2023/05/25 07:54:10;;;;;;;11.80;2.72;;;14.10;99.90;;;;;;4989793;28;20034;-80
2023/05/25 07:56:36;;;;;;;5.75;2.33;;;14.10;99.90;;;;;;4986689;28;20065;-64
2023/05/25 07:59:02;;;;;;;6.35;2.72;;;14.10;99.90;;;;;;4992860;28;20321;-65
2023/05/25 08:01:28;;;;;;;9.53;2.37;;;14.20;99.90;;;;;;4991010;28;20027;-65
2023/05/25 08:03:54;;;;;;;12.37;2.77;;;14.20;99.90;;;;;;4987560;28;20342;-63
2023/05/25 08:06:20;;;;;;;10.40;1.97;;;14.10;99.90;;;;;;4983734;28;20264;-65
2023/05/25 08:08:45;;;;;;;9.80;2.43;;;14.20;99.90;;;;;;4990954;28;20352;-64
2023/05/25 08:11:11;;;;;;;8.50;2.57;;;14.20;99.90;;;;;;4990592;28;20034;-64
2023/05/25 08:13:37;;;;;;;4.73;1.90;;;14.30;99.90;;;;;;4999978;28;20414;-66
2023/05/25 08:16:03;;;;;;;6.97;1.90;;;14.30;99.90;;;;;;4988169;28;20434;-65
2023/05/25 08:18:30;;;;;;;6.30;2.23;;;14.30;99.90;;;;;;5008908;28;20041;-65
2023/05/25 08:20:56;;;;;;;3.90;2.00;;;14.40;99.90;;;;;;4995050;28;20037;-65
2023/05/25 08:23:22;;;;;;;7.53;2.17;;;14.30;99.90;;;;;;4988044;28;20322;-66
2023/05/25 08:25:48;;;;;;;6.67;2.33;;;14.20;99.90;;;;;;4988216;28;20027;-64
2023/05/25 08:28:13;;;;;;;8.33;2.90;;;14.40;99.90;;;;;;4987960;28;20042;-64
2023/05/25 08:30:40;;;;;;;5.80;1.87;;;14.40;99.90;;;;;;4991093;28;20113;-66
2023/05/25 08:33:06;;;;;;;6.25;2.40;;;14.60;99.90;;;;;;4985912;28;20050;-64
2023/05/25 08:35:31;;;;;;;6.50;2.38;;;14.70;99.90;;;;;;4993110;28;20073;-64
2023/05/25 08:37:57;;;;;;;6.43;2.30;;;14.90;99.90;;;;;;5003777;28;20061;-81
2023/05/25 08:40:27;;;;;;;7.70;2.37;;;14.90;99.90;;;;;;4996539;28;20093;-65
2023/05/25 08:42:53;;;;;;;11.27;2.85;;;14.70;99.90;;;;;;4993635;28;20030;-66
2023/05/25 08:45:18;;;;;;;8.03;2.47;;;14.60;99.90;;;;;;4993574;28;20029;-65
2023/05/25 08:47:47;;;;;;;15.57;2.97;;;14.60;99.90;;;;;;4993865;28;20031;-64
2023/05/25 08:50:15;;;;;;;6.47;2.28;;;14.70;99.90;;;;;;4989676;28;20034;-79
2023/05/25 08:52:47;;;;;;;6.22;1.98;;;14.70;99.90;;;;;;5002012;28;20112;-64
2023/05/25 08:55:16;;;;;;;5.30;1.98;;;14.80;99.90;;;;;;4992687;28;20310;-65
2023/05/25 08:58:01;;;;;;;11.23;3.20;;;14.80;99.90;;;;;;4992616;28;20033;-65
2023/05/25 09:00:43;;;;;;;13.00;2.10;;;14.90;99.90;;;;;;4993011;28;20020;-66
2023/05/25 09:03:14;;;;;;;6.35;2.28;;;14.80;99.90;;;;;;4992817;28;20098;-64
2023/05/25 09:05:40;;;;;;;6.28;2.67;;;14.70;99.90;;;;;;4989970;28;20441;-82
2023/05/25 09:08:07;;;;;;;9.05;2.60;;;14.70;99.90;;;;;;4992338;28;20026;-64
2023/05/25 09:10:37;;;;;;;8.63;2.70;;;14.60;99.90;;;;;;4983835;28;20023;-64
2023/05/25 09:13:03;;;;;;;14.32;2.97;;;14.70;99.90;;;;;;4991115;28;20018;-66
2023/05/25 09:15:30;;;;;;;13.80;2.95;;;14.70;99.90;;;;;;4996363;28;20774;-64
2023/05/25 09:17:56;;;;;;;13.32;3.28;;;14.70;99.90;;;;;;5003393;28;20042;-66
2023/05/25 09:20:23;;;;;;;11.13;2.93;;;14.80;99.90;;;;;;5006461;28;20038;-65
2023/05/25 09:22:49;;;;;;;12.05;2.88;;;14.90;99.90;;;;;;5006341;28;20026;-79
2023/05/25 09:25:19;;;;;;;9.07;3.00;;;14.90;99.90;;;;;;5013365;28;20034;-66
2023/05/25 09:27:45;;;;;;;9.93;2.88;;;14.80;99.90;;;;;;5006242;28;20372;-67
2023/05/25 09:30:11;;;;;;;12.80;3.77;;;14.70;99.90;;;;;;5004510;28;20030;-82
2023/05/25 09:32:37;;;;;;;10.70;3.38;;;14.80;99.90;;;;;;4995806;28;20383;-67
2023/05/25 09:35:11;;;;;;;14.38;3.70;;;14.80;99.90;;;;;;4996430;28;20030;-67
2023/05/25 09:37:37;;;;;;;7.95;3.83;;;14.80;99.90;;;;;;5005042;28;20037;-67
2023/05/25 09:40:05;;;;;;;6.20;3.35;;;14.90;99.90;;;;;;5000563;28;20053;-68
2023/05/25 09:42:32;;;;;;;8.93;3.25;;;15.00;99.90;;;;;;4994226;28;20396;-68
2023/05/25 09:45:01;;;;;;;6.82;3.00;;;15.10;99.90;;;;;;5020960;28;20022;-66
2023/05/25 09:47:28;;;;;;;9.40;3.40;;;15.00;99.90;;;;;;5002127;28;20053;-66
2023/05/25 09:49:55;;;;;;;12.25;4.22;;;14.90;99.90;;;;;;4993539;28;20038;-66
2023/05/25 09:52:21;;;;;;;9.60;3.22;;;14.80;99.90;;;;;;5010181;28;20040;-64
2023/05/25 09:54:48;;;;;;;10.88;3.03;;;14.80;99.90;;;;;;5002972;28;20046;-81
2023/05/25 09:57:15;;;;;;;9.38;3.35;;;14.80;99.90;;;;;;5003598;28;20030;-65
2023/05/25 09:59:42;;;;;;;10.27;3.13;;;14.80;99.90;;;;;;4990639;28;20060;-66
2023/05/25 10:02:08;;;;;;;12.07;2.75;;;15.00;99.90;;;;;;5005155;28;20080;-65
2023/05/25 10:04:33;;;;;;;11.27;3.10;;;15.00;99.90;;;;;;5003150;28;20034;-65
2023/05/25 10:07:00;;;;;;;6.27;3.00;;;15.10;99.90;;;;;;5005465;28;20026;-66
2023/05/25 10:09:28;;;;;;;7.00;2.58;;;15.20;99.90;;;;;;4990086;28;20037;-67
2023/05/25 10:11:56;;;;;;;8.90;3.45;;;15.20;99.90;;;;;;5003969;28;20121;-67
2023/05/25 10:14:26;;;;;;;10.93;3.28;;;15.20;99.90;;;;;;5001608;28;20030;-65
2023/05/25 10:16:54;;;;;;;8.02;3.67;;;15.50;99.90;;;;;;4996713;28;20438;-66
2023/05/25 10:19:45;;;;;;;8.60;3.75;;;15.50;99.90;;;;;;4997182;28;20026;-78
2023/05/25 10:22:35;;;;;;;13.32;3.70;;;15.60;99.90;;;;;;5003851;28;20046;-66
2023/05/25 10:25:13;;;;;;;12.57;3.58;;;15.60;99.90;;;;;;4999483;28;20041;-66
2023/05/25 10:27:43;;;;;;;11.85;3.60;;;15.80;99.90;;;;;;5005067;28;20023;-64
2023/05/25 10:30:10;;;;;;;7.00;3.30;;;15.60;99.90;;;;;;4995877;28;20026;-66
2023/05/25 10:32:36;;;;;;;;;;;15.50;99.90;;;;;;4991047;28;20058;-65
2023/05/25 10:35:05;;;;;;;7.45;2.47;;;15.40;99.90;;;;;;4991982;28;20321;-65
2023/05/25 10:37:33;;;;;;;15.43;4.40;;;15.50;99.90;;;;;;4995018;28;20056;-65
2023/05/25 10:40:02;;;;;;;8.57;3.30;;;15.50;99.90;;;;;;4999048;28;20045;-66
2023/05/25 10:42:29;;;;;;;6.10;2.33;;;15.40;99.90;;;;;;4998098;28;20417;-65
2023/05/25 10:44:57;;;;;;;6.03;3.10;;;15.30;99.90;;;;;;4992944;28;20045;-82
2023/05/25 10:47:24;;;;;;;11.30;3.35;;;15.30;99.90;;;;;;5000798;28;20072;-65
2023/05/25 10:49:56;;;;;;;7.63;2.58;;;15.30;99.90;;;;;;4988066;28;20038;-65
2023/05/25 10:52:30;;;;;;;7.57;2.53;;;15.30;99.90;;;;;;4985266;28;20054;-69
2023/05/25 10:55:03;;;;;;;8.52;1.85;;;15.50;99.90;;;;;;4981892;28;20023;-66
2023/05/25 10:57:30;;;;;;;11.57;2.50;;;15.40;99.90;;;;;;4995086;28;20057;-66
2023/05/25 11:00:05;;;;;;;;;;;15.10;99.90;;;;;;4987863;28;20106;-66
2023/05/25 11:02:53;;;;;;;10.45;2.15;;;15.10;99.90;;;;;;5005103;28;19958;-67
2023/05/25 11:05:26;;;;;;;6.25;2.33;;;15.10;99.90;;;;;;4994409;28;20046;-79
2023/05/25 11:07:57;;;;;;;8.52;3.13;;;15.10;99.90;;;;;;4997096;28;20037;-66
2023/05/25 11:10:47;;;;;;;8.05;2.47;;;15.20;99.90;;;;;;5015278;28;20022;-66
2023/05/25 11:13:30;;;;;;;6.40;2.33;;;15.20;99.90;;;;;;4993583;28;20041;-68
2023/05/25 11:16:19;;;;;;;8.00;2.30;;;15.00;99.90;;;;;;4989572;28;20129;-83
2023/05/25 11:18:57;;;;;;;6.88;1.80;;;15.10;99.90;;;;;;4982878;28;20433;-65
2023/05/25 11:21:41;;;;;;;11.02;3.30;;;15.00;99.90;;;;;;4996411;28;20034;-65
2023/05/25 11:24:15;;;;;;;10.35;2.58;;;14.90;99.90;;;;;;4988668;28;20027;-66
2023/05/25 11:27:00;;;;;;;10.32;2.50;;;15.20;99.90;;;;;;4992580;28;20034;-70
2023/05/25 11:29:31;;;;;;;15.88;3.60;;;15.10;99.90;;;;;;4995757;28;20313;-64
2023/05/25 11:31:58;;;;;;;12.18;3.60;;;15.10;99.90;;;;;;5001634;28;20105;-80
2023/05/25 11:34:24;;;;;;;20.13;3.17;;;15.10;99.90;;;;;;4999105;28;20026;-66
2023/05/25 11:37:03;;;;;;;13.05;3.40;;;15.00;99.90;;;;;;5021952;28;20421;-65
2023/05/25 11:39:30;;;;;;;7.28;2.30;;;15.10;99.90;;;;;;4991516;28;20124;-81
2023/05/25 11:42:03;;;;;;;9.80;2.30;;;15.10;99.90;;;;;;5007146;28;20088;-66
2023/05/25 11:44:30;;;;;;;15.20;3.22;;;15.20;99.90;;;;;;5008757;28;20030;-66
2023/05/25 11:47:00;;;;;;;11.65;3.13;;;15.20;99.90;;;;;;4996692;28;20329;-82
2023/05/25 11:49:26;;;;;;;13.38;2.55;;;15.30;99.90;;;;;;5002313;28;20023;-66
2023/05/25 11:51:55;;;;;;;10.73;2.20;;;15.40;99.90;;;;;;5011768;28;20030;-66
2023/05/25 11:54:30;;;;;;;11.40;3.38;;;15.40;99.90;;;;;;5001556;28;20030;-70
2023/05/25 11:56:58;;;;;;;11.30;3.25;;;15.40;99.90;;;;;;5011549;28;20033;-64
2023/05/25 11:59:28;;;;;;;7.70;2.20;;;15.40;99.90;;;;;;4992004;28;20414;-67
2023/05/25 12:02:01;;;;;;;12.57;2.80;;;15.40;99.90;;;;;;5003353;28;20041;-66
2023/05/25 12:04:28;;;;;;;12.15;2.53;;;15.50;99.90;;;;;;5007294;28;20026;-67
2023/05/25 12:07:03;;;;;;;;;;;15.70;99.90;;;;;;5004607;28;20023;-65
2023/05/25 12:09:29;;;;;;;9.45;3.00;;;15.70;99.90;;;;;;4998704;28;19917;-66
2023/05/25 12:11:56;;;;;;;11.57;1.87;;;16.00;99.90;;;;;;5013159;28;20045;-66
2023/05/25 12:14:22;;;;;;;15.25;2.97;;;16.00;99.90;;;;;;5002137;28;20034;-67
2023/05/25 12:16:48;;;;;;;;;;;16.00;99.90;;;;;;5008163;28;20046;-74
2023/05/25 12:19:15;;;;;;;13.40;2.95;;;15.90;99.90;;;;;;4998022;28;19920;-68
2023/05/25 12:21:42;;;;;;;12.25;3.40;;;16.00;99.90;;;;;;5004103;28;20433;-69
2023/05/25 12:24:11;;;;;;;10.82;2.85;;;16.00;99.90;;;;;;5005202;28;20402;-68
2023/05/25 12:26:47;;;;;;;16.10;3.45;;;15.90;99.90;;;;;;5013551;28;20030;-65
2023/05/25 12:29:13;;;;;;;14.80;3.35;;;15.80;99.90;;;;;;5005540;28;20027;-66
2023/05/25 12:31:40;;;;;;;14.50;3.27;;;15.90;99.90;;;;;;5008667;28;20033;-67
2023/05/25 12:34:14;;;;;;;11.40;1.63;;;16.00;99.90;;;;;;5008508;28;20433;-67
2023/05/25 12:36:50;;;;;;;20.45;3.20;;;16.10;99.90;;;;;;5010135;28;20037;-67
2023/05/25 12:39:30;;;;;;;17.35;3.42;;;15.90;99.90;;;;;;5004350;28;20092;-78
2023/05/25 12:42:03;;;;;;;26.45;3.75;;;15.80;99.90;;;;;;5001614;28;20453;-68
2023/05/25 12:44:34;;;;;;;14.55;3.03;;;15.80;99.90;;;;;;5005717;28;20079;-67
2023/05/25 12:47:22;;;;;;;16.08;2.78;;;16.00;99.90;;;;;;5010335;28;20026;-68